Terminal Aerodrome Forecast
Issued by NWS Shreveport, LA

Home | Current Version | Previous Version | Text Only | Print | Product List | Glossary On
Versions: 1 2 3 4 5 6 7 8 9 10 11 12 13 14 15
000
FTUS44 KSHV 290500
TAFELD
TAF
KELD 290525Z 2906/3006 00000KT P6SM VCTS BKN040CB OVC090
      TEMPO 2906/2907 VRB10G20KT 2SM -TSRA BR BKN030CB
     FM291600 17006KT P6SM SCT050
     FM291900 17007KT P6SM VCTS BKN050CB
     FM300000 15005KT P6SM BKN110=

USA.gov is the U.S. government's official web portal to all federal, state and local government web resources and services.